Terminal Aerodrome Forecast
Issued by NWS

Home | Current Version | Previous Version | Graphics & Text | Print | Product List | Glossary On
Versions: 1 2 3 4 5 6 7 8 9 10 11 12 13 14 15 16 17 18
000
FTUS43 KMPX 282339
TAFAXN
TAF
KAXN 282339Z 2900/2924 05007KT P6SM BKN035
     FM290600 08005KT P6SM SCT035
     FM291500 12005KT P6SM SKC=

USA.gov is the U.S. government's official web portal to all federal, state and local government web resources and services.